CSCL Fuzhou — ELYA7 — position and weather

sailwx.info

Track history (hours):
 
Tides and Currents Weather Stations Pressure Air Temp Water Temp Dewpoint Dewpoint Depression Visibility Wind Speed Wind Dir Waves Ship Positions

CSCL Fuzhou

Last reported at 2017-Apr-27 01:54 UTC. Time now 2017-Apr-27 11:11 UTC.
Position N 22°50' E 120°02'.

Length 207.4 m; beam 29.8 m; draft 11.4 m.

Type: Ship (hazmat cat A). MMSI: 636016483.

Date/timePositionNaut miles runAvg speedWind from/ knotsBaromVisibWave heightAir tempDewpointWater temp
2017-Apr-27 01:54N 22°50' E 120°02'819.9
2017-Apr-27 01:30N 22°43' E 120°06'1019.3
2017-Apr-27 01:00N 22°35' E 120°12'713.3
2017-Apr-27 00:30N 22°33' E 120°19'0 0.0
2017-Apr-26 08:42N 22°33' E 120°19'2 9.5
2017-Apr-26 08:29N 22°33' E 120°17'1 1.4
2017-Apr-26 08:00N 22°32' E 120°16'1 1.9
2017-Apr-26 07:30N 22°32' E 120°15'3 6.9
2017-Apr-26 07:00N 22°32' E 120°12'4 8.6
2017-Apr-26 06:30N 22°30' E 120°07'1 1.8
2017-Apr-26 06:00N 22°30' E 120°06'1 1.5
2017-Apr-26 05:30N 22°30' E 120°05'1 2.0
2017-Apr-26 05:00N 22°30' E 120°04'3 5.1
2017-Apr-26 04:30N 22°30' E 120°02'612.0
2017-Apr-26 04:00N 22°30' E 119°55'918.8
2017-Apr-26 03:30N 22°29' E 119°45'312 9.6
2017-Apr-24 18:56N 22°20' E 114°07'  
2017-Apr-20 07:48N 01°14' E 104°01'619.4
2017-Apr-20 07:30N 01°13' E 103°56'1019.9
2017-Apr-20 07:00N 01°09' E 103°47'1019.5
2017-Apr-20 06:30N 01°03' E 103°39'917.2
2017-Apr-20 06:00N 01°09' E 103°33'714.3
2017-Apr-20 05:30N 01°16' E 103°33'510.3
2017-Apr-20 04:59N 01°22' E 103°33'1 1.6
2017-Apr-20 04:30N 01°22' E 103°33'0 0.0
2017-Apr-20 03:54N 01°22' E 103°33'0 0.0
2017-Apr-20 03:27N 01°22' E 103°33'0 0.0
2017-Apr-20 03:00N 01°22' E 103°33'0 0.0
2017-Apr-20 02:21N 01°22' E 103°33'0 0.0
2017-Apr-20 01:33N 01°22' E 103°33'0 0.0
2017-Apr-20 01:24N 01°22' E 103°33'0 0.0
2017-Apr-20 00:54N 01°22' E 103°33'0 0.1
2017-Apr-20 00:18N 01°22' E 103°33'0 0.2
2017-Apr-20 00:00N 01°22' E 103°33'0 0.0
2017-Apr-19 23:27N 01°22' E 103°33'0 0.0
2017-Apr-19 22:57N 01°22' E 103°33'0 0.0
2017-Apr-19 22:30N 01°22' E 103°33'0 0.0
2017-Apr-19 22:00N 01°22' E 103°33'0 0.0
2017-Apr-19 21:24N 01°22' E 103°33'0 0.0
2017-Apr-19 20:57N 01°22' E 103°33'0 0.0
2017-Apr-19 19:54N 01°22' E 103°33'0 0.0
2017-Apr-19 19:21N 01°22' E 103°33'0 0.0
2017-Apr-19 19:00N 01°22' E 103°33'0 0.0
2017-Apr-19 18:30N 01°22' E 103°33'0 0.0
2017-Apr-19 18:00N 01°22' E 103°33'0 0.0
2017-Apr-19 17:27N 01°22' E 103°33'0 0.0
2017-Apr-19 17:00N 01°22' E 103°33'0 0.0
2017-Apr-19 16:30N 01°22' E 103°33'0 0.1
2017-Apr-19 16:00N 01°22' E 103°33'0 0.1
2017-Apr-19 15:24N 01°22' E 103°33'0 0.0
2017-Apr-19 15:00N 01°22' E 103°33'0 0.0
2017-Apr-19 14:30N 01°22' E 103°33'0 0.0
2017-Apr-19 13:21N 01°22' E 103°33'0 0.0
2017-Apr-19 12:51N 01°22' E 103°33'0 0.0
2017-Apr-19 12:27N 01°22' E 103°33'0 0.0
2017-Apr-19 12:00N 01°22' E 103°33'0 0.0
2017-Apr-19 11:30N 01°22' E 103°33'2 4.3
2017-Apr-19 10:59N 01°20' E 103°33'612.3
2017-Apr-19 10:30N 01°14' E 103°32'5 9.5
2017-Apr-19 10:00N 01°11' E 103°29'3 6.4
2017-Apr-19 09:30N 01°11' E 103°26'5 8.2
2017-Apr-19 08:57N 01°14' E 103°22'4 8.3
2017-Apr-19 08:29N 01°16' E 103°19'55 9.2
2017-Apr-19 02:29N 01°46' E 102°32'612.4
2017-Apr-19 02:00N 01°48' E 102°27'917.9
2017-Apr-19 01:30N 01°52' E 102°19'917.9
2017-Apr-19 00:59N 01°57' E 102°11'918.1
2017-Apr-19 00:30N 02°03' E 102°05'2317.8
2017-Apr-18 23:13N 02°17' E 101°47'20417.7
2017-Apr-18 11:42N 05°14' E 100°05'1020.1
2017-Apr-18 11:12N 05°24' E 100°05'  
Track history (hours):
 
Tides and Currents Weather Stations Pressure Air Temp Water Temp Dewpoint Dewpoint Depression Visibility Wind Speed Wind Dir Waves Ship Positions

CSCL Fuzhou

Last reported at 2017-Apr-27 01:54 UTC. Time now 2017-Apr-27 11:11 UTC.
Position N 22°50' E 120°02'.

Length 207.4 m; beam 29.8 m; draft 11.4 m.

Type: Ship (hazmat cat A). MMSI: 636016483.

Date/timePositionNaut miles runAvg speedWind from/ knotsBaromVisibWave heightAir tempDewpointWater temp
2017-Apr-27 01:54N 22°50' E 120°02'819.9
2017-Apr-27 01:30N 22°43' E 120°06'1019.3
2017-Apr-27 01:00N 22°35' E 120°12'713.3
2017-Apr-27 00:30N 22°33' E 120°19'0 0.0
2017-Apr-26 08:42N 22°33' E 120°19'2 9.5
2017-Apr-26 08:29N 22°33' E 120°17'1 1.4
2017-Apr-26 08:00N 22°32' E 120°16'1 1.9
2017-Apr-26 07:30N 22°32' E 120°15'3 6.9
2017-Apr-26 07:00N 22°32' E 120°12'4 8.6
2017-Apr-26 06:30N 22°30' E 120°07'1 1.8
2017-Apr-26 06:00N 22°30' E 120°06'1 1.5
2017-Apr-26 05:30N 22°30' E 120°05'1 2.0
2017-Apr-26 05:00N 22°30' E 120°04'3 5.1
2017-Apr-26 04:30N 22°30' E 120°02'612.0
2017-Apr-26 04:00N 22°30' E 119°55'918.8
2017-Apr-26 03:30N 22°29' E 119°45'312 9.6
2017-Apr-24 18:56N 22°20' E 114°07'  
2017-Apr-20 07:48N 01°14' E 104°01'619.4
2017-Apr-20 07:30N 01°13' E 103°56'1019.9
2017-Apr-20 07:00N 01°09' E 103°47'1019.5
2017-Apr-20 06:30N 01°03' E 103°39'917.2
2017-Apr-20 06:00N 01°09' E 103°33'714.3
2017-Apr-20 05:30N 01°16' E 103°33'510.3
2017-Apr-20 04:59N 01°22' E 103°33'1 1.6
2017-Apr-20 04:30N 01°22' E 103°33'0 0.0
2017-Apr-20 03:54N 01°22' E 103°33'0 0.0
2017-Apr-20 03:27N 01°22' E 103°33'0 0.0
2017-Apr-20 03:00N 01°22' E 103°33'0 0.0
2017-Apr-20 02:21N 01°22' E 103°33'0 0.0
2017-Apr-20 01:33N 01°22' E 103°33'0 0.0
2017-Apr-20 01:24N 01°22' E 103°33'0 0.0
2017-Apr-20 00:54N 01°22' E 103°33'0 0.1
2017-Apr-20 00:18N 01°22' E 103°33'0 0.2
2017-Apr-20 00:00N 01°22' E 103°33'0 0.0
2017-Apr-19 23:27N 01°22' E 103°33'0 0.0
2017-Apr-19 22:57N 01°22' E 103°33'0 0.0
2017-Apr-19 22:30N 01°22' E 103°33'0 0.0
2017-Apr-19 22:00N 01°22' E 103°33'0 0.0
2017-Apr-19 21:24N 01°22' E 103°33'0 0.0
2017-Apr-19 20:57N 01°22' E 103°33'0 0.0
2017-Apr-19 19:54N 01°22' E 103°33'0 0.0
2017-Apr-19 19:21N 01°22' E 103°33'0 0.0
2017-Apr-19 19:00N 01°22' E 103°33'0 0.0
2017-Apr-19 18:30N 01°22' E 103°33'0 0.0
2017-Apr-19 18:00N 01°22' E 103°33'0 0.0
2017-Apr-19 17:27N 01°22' E 103°33'0 0.0
2017-Apr-19 17:00N 01°22' E 103°33'0 0.0
2017-Apr-19 16:30N 01°22' E 103°33'0 0.1
2017-Apr-19 16:00N 01°22' E 103°33'0 0.1
2017-Apr-19 15:24N 01°22' E 103°33'0 0.0
2017-Apr-19 15:00N 01°22' E 103°33'0 0.0
2017-Apr-19 14:30N 01°22' E 103°33'0 0.0
2017-Apr-19 13:21N 01°22' E 103°33'0 0.0
2017-Apr-19 12:51N 01°22' E 103°33'0 0.0
2017-Apr-19 12:27N 01°22' E 103°33'0 0.0
2017-Apr-19 12:00N 01°22' E 103°33'0 0.0
2017-Apr-19 11:30N 01°22' E 103°33'2 4.3
2017-Apr-19 10:59N 01°20' E 103°33'612.3
2017-Apr-19 10:30N 01°14' E 103°32'5 9.5
2017-Apr-19 10:00N 01°11' E 103°29'3 6.4
2017-Apr-19 09:30N 01°11' E 103°26'5 8.2
2017-Apr-19 08:57N 01°14' E 103°22'4 8.3
2017-Apr-19 08:29N 01°16' E 103°19'55 9.2
2017-Apr-19 02:29N 01°46' E 102°32'612.4
2017-Apr-19 02:00N 01°48' E 102°27'917.9
2017-Apr-19 01:30N 01°52' E 102°19'917.9
2017-Apr-19 00:59N 01°57' E 102°11'918.1
2017-Apr-19 00:30N 02°03' E 102°05'2317.8
2017-Apr-18 23:13N 02°17' E 101°47'20417.7
2017-Apr-18 11:42N 05°14' E 100°05'1020.1
2017-Apr-18 11:12N 05°24' E 100°05'  

Dump ship's entire track history